sensor_id;sensor_type;location;lat;lon;timestamp;P1;durP1;ratioP1;P2;durP2;ratioP2
19836;SDS011;10079;55.740;37.662;2023-03-12T00:01:24;10.03;;;6.43;;
19836;SDS011;10079;55.740;37.662;2023-03-12T00:04:08;7.67;;;5.10;;
19836;SDS011;10079;55.740;37.662;2023-03-12T00:17:23;6.97;;;4.77;;
19836;SDS011;10079;55.740;37.662;2023-03-12T00:20:04;6.73;;;4.30;;
19836;SDS011;10079;55.740;37.662;2023-03-12T00:22:45;4.40;;;3.70;;
19836;SDS011;10079;55.740;37.662;2023-03-12T00:25:25;6.47;;;4.27;;
19836;SDS011;10079;55.740;37.662;2023-03-12T00:28:10;5.30;;;4.17;;
19836;SDS011;10079;55.740;37.662;2023-03-12T00:31:12;6.33;;;4.00;;
19836;SDS011;10079;55.740;37.662;2023-03-12T00:33:44;6.03;;;4.00;;
19836;SDS011;10079;55.740;37.662;2023-03-12T00:36:26;6.23;;;4.80;;
19836;SDS011;10079;55.740;37.662;2023-03-12T00:39:06;7.63;;;5.77;;
19836;SDS011;10079;55.740;37.662;2023-03-12T00:41:47;9.03;;;7.00;;
19836;SDS011;10079;55.740;37.662;2023-03-12T00:44:28;10.67;;;7.20;;
19836;SDS011;10079;55.740;37.662;2023-03-12T00:47:08;11.50;;;6.60;;
19836;SDS011;10079;55.740;37.662;2023-03-12T00:49:49;8.93;;;5.40;;
19836;SDS011;10079;55.740;37.662;2023-03-12T00:52:40;7.50;;;5.90;;
19836;SDS011;10079;55.740;37.662;2023-03-12T00:55:24;6.13;;;5.13;;
19836;SDS011;10079;55.740;37.662;2023-03-12T00:58:05;6.83;;;5.03;;
19836;SDS011;10079;55.740;37.662;2023-03-12T01:00:49;8.57;;;5.10;;
19836;SDS011;10079;55.740;37.662;2023-03-12T01:03:39;7.03;;;5.20;;
19836;SDS011;10079;55.740;37.662;2023-03-12T01:06:19;8.53;;;5.37;;
19836;SDS011;10079;55.740;37.662;2023-03-12T01:09:04;9.40;;;6.90;;
19836;SDS011;10079;55.740;37.662;2023-03-12T01:11:45;12.07;;;8.70;;
19836;SDS011;10079;55.740;37.662;2023-03-12T01:14:25;12.17;;;7.97;;
19836;SDS011;10079;55.740;37.662;2023-03-12T01:17:07;11.90;;;6.00;;
19836;SDS011;10079;55.740;37.662;2023-03-12T01:19:48;12.97;;;7.10;;
19836;SDS011;10079;55.740;37.662;2023-03-12T01:22:33;11.17;;;7.13;;
19836;SDS011;10079;55.740;37.662;2023-03-12T01:25:21;16.10;;;9.27;;
19836;SDS011;10079;55.740;37.662;2023-03-12T01:28:06;18.30;;;8.80;;
19836;SDS011;10079;55.740;37.662;2023-03-12T01:30:55;16.00;;;8.80;;
19836;SDS011;10079;55.740;37.662;2023-03-12T01:33:36;17.00;;;9.17;;
19836;SDS011;10079;55.740;37.662;2023-03-12T01:36:19;18.00;;;9.83;;
19836;SDS011;10079;55.740;37.662;2023-03-12T01:38:59;20.50;;;10.13;;
19836;SDS011;10079;55.740;37.662;2023-03-12T01:41:40;21.97;;;11.73;;
19836;SDS011;10079;55.740;37.662;2023-03-12T01:44:24;20.90;;;13.17;;
19836;SDS011;10079;55.740;37.662;2023-03-12T01:47:17;24.97;;;12.73;;
19836;SDS011;10079;55.740;37.662;2023-03-12T01:49:58;27.27;;;12.37;;
19836;SDS011;10079;55.740;37.662;2023-03-12T01:52:47;23.23;;;11.63;;
19836;SDS011;10079;55.740;37.662;2023-03-12T01:55:31;26.67;;;11.90;;
19836;SDS011;10079;55.740;37.662;2023-03-12T01:58:12;21.43;;;11.87;;
19836;SDS011;10079;55.740;37.662;2023-03-12T02:00:53;17.47;;;11.17;;
19836;SDS011;10079;55.740;37.662;2023-03-12T02:03:34;24.10;;;12.50;;
19836;SDS011;10079;55.740;37.662;2023-03-12T02:06:15;19.23;;;10.87;;
19836;SDS011;10079;55.740;37.662;2023-03-12T02:09:05;21.57;;;11.53;;
19836;SDS011;10079;55.740;37.662;2023-03-12T02:11:49;24.77;;;11.73;;
19836;SDS011;10079;55.740;37.662;2023-03-12T02:14:29;23.43;;;11.90;;
19836;SDS011;10079;55.740;37.662;2023-03-12T02:17:10;20.53;;;11.77;;
19836;SDS011;10079;55.740;37.662;2023-03-12T02:20:07;19.77;;;10.73;;
19836;SDS011;10079;55.740;37.662;2023-03-12T02:33:27;23.50;;;12.73;;
19836;SDS011;10079;55.740;37.662;2023-03-12T02:36:07;22.63;;;12.57;;
19836;SDS011;10079;55.740;37.662;2023-03-12T02:38:49;21.50;;;11.90;;
19836;SDS011;10079;55.740;37.662;2023-03-12T02:41:31;20.70;;;12.17;;
19836;SDS011;10079;55.740;37.662;2023-03-12T02:44:14;20.33;;;10.83;;
19836;SDS011;10079;55.740;37.662;2023-03-12T02:46:56;18.97;;;11.07;;
19836;SDS011;10079;55.740;37.662;2023-03-12T02:49:36;20.23;;;11.07;;
19836;SDS011;10079;55.740;37.662;2023-03-12T02:52:16;19.60;;;10.37;;
19836;SDS011;10079;55.740;37.662;2023-03-12T02:54:57;17.17;;;10.43;;
19836;SDS011;10079;55.740;37.662;2023-03-12T02:57:38;18.30;;;10.13;;
19836;SDS011;10079;55.740;37.662;2023-03-12T03:00:22;17.67;;;10.27;;
19836;SDS011;10079;55.740;37.662;2023-03-12T03:03:03;20.93;;;10.73;;
19836;SDS011;10079;55.740;37.662;2023-03-12T03:05:44;18.07;;;10.23;;
19836;SDS011;10079;55.740;37.662;2023-03-12T03:08:25;16.90;;;10.33;;
19836;SDS011;10079;55.740;37.662;2023-03-12T03:11:05;15.47;;;9.07;;
19836;SDS011;10079;55.740;37.662;2023-03-12T03:13:46;15.80;;;9.40;;
19836;SDS011;10079;55.740;37.662;2023-03-12T03:16:27;19.07;;;10.70;;
19836;SDS011;10079;55.740;37.662;2023-03-12T03:19:11;16.90;;;10.10;;
19836;SDS011;10079;55.740;37.662;2023-03-12T03:21:55;17.97;;;10.03;;
19836;SDS011;10079;55.740;37.662;2023-03-12T03:24:44;17.10;;;9.67;;
19836;SDS011;10079;55.740;37.662;2023-03-12T03:27:28;18.67;;;10.10;;
19836;SDS011;10079;55.740;37.662;2023-03-12T03:30:21;18.63;;;10.70;;
19836;SDS011;10079;55.740;37.662;2023-03-12T03:33:14;18.30;;;10.30;;
19836;SDS011;10079;55.740;37.662;2023-03-12T03:36:07;17.23;;;10.90;;
19836;SDS011;10079;55.740;37.662;2023-03-12T03:38:47;20.00;;;10.47;;
19836;SDS011;10079;55.740;37.662;2023-03-12T03:41:28;18.70;;;10.40;;
19836;SDS011;10079;55.740;37.662;2023-03-12T03:44:21;19.27;;;10.00;;
19836;SDS011;10079;55.740;37.662;2023-03-12T03:47:02;19.33;;;10.83;;
19836;SDS011;10079;55.740;37.662;2023-03-12T03:49:46;16.97;;;10.10;;
19836;SDS011;10079;55.740;37.662;2023-03-12T03:52:27;17.13;;;9.40;;
19836;SDS011;10079;55.740;37.662;2023-03-12T03:55:19;19.73;;;10.90;;
19836;SDS011;10079;55.740;37.662;2023-03-12T03:58:00;19.13;;;10.70;;
19836;SDS011;10079;55.740;37.662;2023-03-12T04:00:42;17.90;;;10.10;;
19836;SDS011;10079;55.740;37.662;2023-03-12T04:03:22;19.30;;;11.47;;
19836;SDS011;10079;55.740;37.662;2023-03-12T04:06:06;17.77;;;11.00;;
19836;SDS011;10079;55.740;37.662;2023-03-12T04:08:50;19.17;;;10.70;;
19836;SDS011;10079;55.740;37.662;2023-03-12T04:11:31;19.47;;;10.77;;
19836;SDS011;10079;55.740;37.662;2023-03-12T04:14:24;21.53;;;12.17;;
19836;SDS011;10079;55.740;37.662;2023-03-12T04:17:16;18.10;;;10.80;;
19836;SDS011;10079;55.740;37.662;2023-03-12T04:20:09;20.70;;;11.93;;
19836;SDS011;10079;55.740;37.662;2023-03-12T04:22:51;19.73;;;11.17;;
19836;SDS011;10079;55.740;37.662;2023-03-12T04:25:36;20.47;;;11.10;;
19836;SDS011;10079;55.740;37.662;2023-03-12T04:28:28;23.37;;;12.97;;
19836;SDS011;10079;55.740;37.662;2023-03-12T04:31:09;23.23;;;11.90;;
19836;SDS011;10079;55.740;37.662;2023-03-12T04:34:02;23.43;;;12.70;;
19836;SDS011;10079;55.740;37.662;2023-03-12T04:36:56;22.70;;;12.10;;
19836;SDS011;10079;55.740;37.662;2023-03-12T04:39:49;23.30;;;12.67;;
19836;SDS011;10079;55.740;37.662;2023-03-12T04:42:30;22.77;;;11.53;;
19836;SDS011;10079;55.740;37.662;2023-03-12T04:45:11;20.23;;;11.90;;
19836;SDS011;10079;55.740;37.662;2023-03-12T04:47:52;20.87;;;11.47;;
19836;SDS011;10079;55.740;37.662;2023-03-12T04:50:33;21.93;;;11.57;;
19836;SDS011;10079;55.740;37.662;2023-03-12T04:53:26;25.17;;;12.87;;
19836;SDS011;10079;55.740;37.662;2023-03-12T04:56:18;21.63;;;11.23;;
19836;SDS011;10079;55.740;37.662;2023-03-12T04:59:03;22.27;;;12.60;;
19836;SDS011;10079;55.740;37.662;2023-03-12T05:01:55;20.13;;;12.27;;
19836;SDS011;10079;55.740;37.662;2023-03-12T05:04:39;24.23;;;13.07;;
19836;SDS011;10079;55.740;37.662;2023-03-12T05:07:20;25.37;;;13.67;;
19836;SDS011;10079;55.740;37.662;2023-03-12T05:10:13;26.43;;;13.60;;
19836;SDS011;10079;55.740;37.662;2023-03-12T05:12:57;22.43;;;12.87;;
19836;SDS011;10079;55.740;37.662;2023-03-12T05:15:50;26.17;;;14.43;;
19836;SDS011;10079;55.740;37.662;2023-03-12T05:18:34;24.33;;;13.77;;
19836;SDS011;10079;55.740;37.662;2023-03-12T05:31:54;30.37;;;15.77;;
19836;SDS011;10079;55.740;37.662;2023-03-12T05:34:35;27.77;;;14.67;;
19836;SDS011;10079;55.740;37.662;2023-03-12T05:37:16;27.77;;;14.57;;
19836;SDS011;10079;55.740;37.662;2023-03-12T05:39:57;27.67;;;15.00;;
19836;SDS011;10079;55.740;37.662;2023-03-12T05:42:37;28.70;;;14.93;;
19836;SDS011;10079;55.740;37.662;2023-03-12T05:45:27;31.63;;;15.90;;
19836;SDS011;10079;55.740;37.662;2023-03-12T05:48:19;33.43;;;16.67;;
19836;SDS011;10079;55.740;37.662;2023-03-12T06:01:31;42.17;;;21.23;;
19836;SDS011;10079;55.740;37.662;2023-03-12T06:04:15;43.23;;;20.37;;
19836;SDS011;10079;55.740;37.662;2023-03-12T06:17:39;52.53;;;24.73;;
19836;SDS011;10079;55.740;37.662;2023-03-12T06:20:32;43.90;;;22.87;;
19836;SDS011;10079;55.740;37.662;2023-03-12T06:23:24;46.67;;;23.87;;
19836;SDS011;10079;55.740;37.662;2023-03-12T06:26:14;47.17;;;24.63;;
19836;SDS011;10079;55.740;37.662;2023-03-12T06:29:07;52.93;;;24.67;;
19836;SDS011;10079;55.740;37.662;2023-03-12T06:31:51;48.47;;;25.27;;
19836;SDS011;10079;55.740;37.662;2023-03-12T06:34:35;50.23;;;24.30;;
19836;SDS011;10079;55.740;37.662;2023-03-12T06:47:47;58.00;;;28.37;;
19836;SDS011;10079;55.740;37.662;2023-03-12T06:50:31;61.57;;;29.67;;
19836;SDS011;10079;55.740;37.662;2023-03-12T06:53:13;62.07;;;29.37;;
19836;SDS011;10079;55.740;37.662;2023-03-12T06:55:53;57.50;;;28.53;;
19836;SDS011;10079;55.740;37.662;2023-03-12T06:58:34;65.20;;;31.07;;
19836;SDS011;10079;55.740;37.662;2023-03-12T07:01:19;57.73;;;27.33;;
19836;SDS011;10079;55.740;37.662;2023-03-12T07:04:00;62.33;;;30.30;;
19836;SDS011;10079;55.740;37.662;2023-03-12T07:06:41;57.90;;;27.47;;
19836;SDS011;10079;55.740;37.662;2023-03-12T07:09:34;61.83;;;30.37;;
19836;SDS011;10079;55.740;37.662;2023-03-12T07:12:14;64.37;;;30.70;;
19836;SDS011;10079;55.740;37.662;2023-03-12T07:14:59;63.10;;;32.03;;
19836;SDS011;10079;55.740;37.662;2023-03-12T07:17:40;64.60;;;29.40;;
19836;SDS011;10079;55.740;37.662;2023-03-12T07:20:26;58.70;;;29.97;;
19836;SDS011;10079;55.740;37.662;2023-03-12T07:23:10;67.43;;;29.43;;
19836;SDS011;10079;55.740;37.662;2023-03-12T07:25:56;55.73;;;28.07;;
19836;SDS011;10079;55.740;37.662;2023-03-12T07:28:40;55.73;;;28.43;;
19836;SDS011;10079;55.740;37.662;2023-03-12T07:31:22;57.70;;;27.90;;
19836;SDS011;10079;55.740;37.662;2023-03-12T07:34:15;58.20;;;29.17;;
19836;SDS011;10079;55.740;37.662;2023-03-12T07:36:56;53.63;;;28.60;;
19836;SDS011;10079;55.740;37.662;2023-03-12T07:39:37;52.47;;;27.40;;
19836;SDS011;10079;55.740;37.662;2023-03-12T07:42:18;51.73;;;26.90;;
19836;SDS011;10079;55.740;37.662;2023-03-12T07:44:58;52.07;;;26.70;;
19836;SDS011;10079;55.740;37.662;2023-03-12T07:47:44;54.03;;;26.83;;
19836;SDS011;10079;55.740;37.662;2023-03-12T07:50:26;46.90;;;25.10;;
19836;SDS011;10079;55.740;37.662;2023-03-12T07:53:16;44.87;;;25.37;;
19836;SDS011;10079;55.740;37.662;2023-03-12T07:56:02;47.97;;;25.20;;
19836;SDS011;10079;55.740;37.662;2023-03-12T08:09:14;50.40;;;25.17;;
19836;SDS011;10079;55.740;37.662;2023-03-12T08:11:58;47.20;;;25.17;;
19836;SDS011;10079;55.740;37.662;2023-03-12T08:14:43;49.07;;;25.27;;
19836;SDS011;10079;55.740;37.662;2023-03-12T08:17:24;53.50;;;25.43;;
19836;SDS011;10079;55.740;37.662;2023-03-12T08:20:08;61.20;;;24.77;;
19836;SDS011;10079;55.740;37.662;2023-03-12T08:22:49;56.70;;;26.33;;
19836;SDS011;10079;55.740;37.662;2023-03-12T08:25:30;48.93;;;25.43;;
19836;SDS011;10079;55.740;37.662;2023-03-12T08:28:10;51.70;;;25.93;;
19836;SDS011;10079;55.740;37.662;2023-03-12T08:31:03;54.00;;;26.53;;
19836;SDS011;10079;55.740;37.662;2023-03-12T08:33:47;48.20;;;24.37;;
19836;SDS011;10079;55.740;37.662;2023-03-12T08:36:40;47.70;;;24.77;;
19836;SDS011;10079;55.740;37.662;2023-03-12T08:39:24;45.40;;;23.63;;
19836;SDS011;10079;55.740;37.662;2023-03-12T08:42:07;46.80;;;22.80;;
19836;SDS011;10079;55.740;37.662;2023-03-12T08:44:48;43.67;;;22.17;;
19836;SDS011;10079;55.740;37.662;2023-03-12T08:47:34;38.60;;;20.33;;
19836;SDS011;10079;55.740;37.662;2023-03-12T08:50:26;41.90;;;20.67;;
19836;SDS011;10079;55.740;37.662;2023-03-12T08:53:19;32.20;;;18.37;;
19836;SDS011;10079;55.740;37.662;2023-03-12T08:56:00;34.17;;;17.50;;
19836;SDS011;10079;55.740;37.662;2023-03-12T08:58:41;29.77;;;17.13;;
19836;SDS011;10079;55.740;37.662;2023-03-12T09:01:22;30.70;;;16.27;;
19836;SDS011;10079;55.740;37.662;2023-03-12T09:04:15;24.50;;;14.60;;
19836;SDS011;10079;55.740;37.662;2023-03-12T09:06:56;26.80;;;15.03;;
19836;SDS011;10079;55.740;37.662;2023-03-12T09:09:40;25.07;;;13.33;;
19836;SDS011;10079;55.740;37.662;2023-03-12T09:23:01;23.97;;;13.93;;
19836;SDS011;10079;55.740;37.662;2023-03-12T09:25:48;21.73;;;12.27;;
19836;SDS011;10079;55.740;37.662;2023-03-12T09:28:30;21.70;;;11.83;;
19836;SDS011;10079;55.740;37.662;2023-03-12T09:31:15;18.80;;;11.40;;
19836;SDS011;10079;55.740;37.662;2023-03-12T09:33:58;17.93;;;11.57;;
19836;SDS011;10079;55.740;37.662;2023-03-12T09:36:42;20.27;;;11.33;;
19836;SDS011;10079;55.740;37.662;2023-03-12T09:39:24;15.00;;;9.83;;
19836;SDS011;10079;55.740;37.662;2023-03-12T09:42:12;16.07;;;10.23;;
19836;SDS011;10079;55.740;37.662;2023-03-12T09:44:59;18.63;;;10.13;;
19836;SDS011;10079;55.740;37.662;2023-03-12T09:47:46;15.73;;;9.53;;
19836;SDS011;10079;55.740;37.662;2023-03-12T09:50:35;13.93;;;8.90;;
19836;SDS011;10079;55.740;37.662;2023-03-12T09:53:40;16.67;;;9.20;;
19836;SDS011;10079;55.740;37.662;2023-03-12T09:56:35;14.30;;;8.63;;
19836;SDS011;10079;55.740;37.662;2023-03-12T09:59:17;14.90;;;8.80;;
19836;SDS011;10079;55.740;37.662;2023-03-12T10:01:59;12.40;;;7.63;;
19836;SDS011;10079;55.740;37.662;2023-03-12T10:04:57;11.97;;;7.67;;
19836;SDS011;10079;55.740;37.662;2023-03-12T10:07:51;10.60;;;7.40;;
19836;SDS011;10079;55.740;37.662;2023-03-12T10:21:09;12.63;;;8.90;;
19836;SDS011;10079;55.740;37.662;2023-03-12T10:24:05;12.73;;;8.83;;
19836;SDS011;10079;55.740;37.662;2023-03-12T10:27:08;14.07;;;10.43;;
19836;SDS011;10079;55.740;37.662;2023-03-12T10:29:58;15.40;;;11.10;;
19836;SDS011;10079;55.740;37.662;2023-03-12T10:32:45;17.77;;;12.47;;
19836;SDS011;10079;55.740;37.662;2023-03-12T10:35:26;16.07;;;11.27;;
19836;SDS011;10079;55.740;37.662;2023-03-12T10:38:13;16.03;;;11.57;;
19836;SDS011;10079;55.740;37.662;2023-03-12T10:40:57;18.40;;;13.03;;
19836;SDS011;10079;55.740;37.662;2023-03-12T10:43:38;15.53;;;12.23;;
19836;SDS011;10079;55.740;37.662;2023-03-12T10:49:24;16.90;;;12.07;;
19836;SDS011;10079;55.740;37.662;2023-03-12T10:52:22;17.53;;;12.80;;
19836;SDS011;10079;55.740;37.662;2023-03-12T10:55:09;17.07;;;12.10;;
19836;SDS011;10079;55.740;37.662;2023-03-12T10:57:50;17.70;;;13.17;;
19836;SDS011;10079;55.740;37.662;2023-03-12T11:00:31;19.40;;;12.97;;
19836;SDS011;10079;55.740;37.662;2023-03-12T11:03:18;18.70;;;13.90;;
19836;SDS011;10079;55.740;37.662;2023-03-12T11:06:01;19.23;;;13.60;;
19836;SDS011;10079;55.740;37.662;2023-03-12T11:19:27;20.63;;;15.43;;
19836;SDS011;10079;55.740;37.662;2023-03-12T11:22:13;21.03;;;15.23;;
19836;SDS011;10079;55.740;37.662;2023-03-12T11:25:18;19.50;;;14.43;;
19836;SDS011;10079;55.740;37.662;2023-03-12T11:27:54;20.67;;;14.40;;
19836;SDS011;10079;55.740;37.662;2023-03-12T11:30:39;19.20;;;14.27;;
19836;SDS011;10079;55.740;37.662;2023-03-12T11:33:21;19.17;;;13.50;;
19836;SDS011;10079;55.740;37.662;2023-03-12T11:36:25;22.83;;;15.80;;
19836;SDS011;10079;55.740;37.662;2023-03-12T11:39:22;22.57;;;16.20;;
19836;SDS011;10079;55.740;37.662;2023-03-12T11:42:10;20.60;;;14.60;;
19836;SDS011;10079;55.740;37.662;2023-03-12T11:44:56;20.90;;;14.13;;
19836;SDS011;10079;55.740;37.662;2023-03-12T11:50:36;23.63;;;14.97;;
19836;SDS011;10079;55.740;37.662;2023-03-12T11:53:25;5.53;;;4.43;;
19836;SDS011;10079;55.740;37.662;2023-03-12T11:56:25;5.63;;;3.10;;
19836;SDS011;10079;55.740;37.662;2023-03-12T11:59:22;5.67;;;4.10;;
19836;SDS011;10079;55.740;37.662;2023-03-12T12:02:20;3.27;;;2.00;;
19836;SDS011;10079;55.740;37.662;2023-03-12T12:15:46;1.90;;;1.60;;
19836;SDS011;10079;55.740;37.662;2023-03-12T12:18:41;3.00;;;1.37;;
19836;SDS011;10079;55.740;37.662;2023-03-12T12:21:31;1.50;;;1.10;;
19836;SDS011;10079;55.740;37.662;2023-03-12T12:37:56;4.33;;;1.57;;
19836;SDS011;10079;55.740;37.662;2023-03-12T12:40:50;2.03;;;1.10;;
19836;SDS011;10079;55.740;37.662;2023-03-12T12:43:34;3.93;;;1.30;;
19836;SDS011;10079;55.740;37.662;2023-03-12T12:46:25;2.97;;;1.10;;
19836;SDS011;10079;55.740;37.662;2023-03-12T12:59:45;1.57;;;1.10;;
19836;SDS011;10079;55.740;37.662;2023-03-12T13:02:27;1.10;;;0.80;;
19836;SDS011;10079;55.740;37.662;2023-03-12T13:11:29;0.90;;;0.60;;
19836;SDS011;10079;55.740;37.662;2023-03-12T13:14:12;1.07;;;0.70;;
19836;SDS011;10079;55.740;37.662;2023-03-12T13:17:05;1.37;;;0.90;;
19836;SDS011;10079;55.740;37.662;2023-03-12T13:19:47;1.47;;;0.90;;
19836;SDS011;10079;55.740;37.662;2023-03-12T13:22:38;2.20;;;0.83;;
19836;SDS011;10079;55.740;37.662;2023-03-12T13:25:24;1.57;;;0.90;;
19836;SDS011;10079;55.740;37.662;2023-03-12T13:41:39;3.43;;;1.07;;
19836;SDS011;10079;55.740;37.662;2023-03-12T14:05:33;2.87;;;1.80;;
19836;SDS011;10079;55.740;37.662;2023-03-12T14:08:16;3.07;;;1.90;;
19836;SDS011;10079;55.740;37.662;2023-03-12T14:11:18;3.17;;;1.40;;
19836;SDS011;10079;55.740;37.662;2023-03-12T14:14:04;3.57;;;1.40;;
19836;SDS011;10079;55.740;37.662;2023-03-12T14:16:55;1.30;;;0.90;;
19836;SDS011;10079;55.740;37.662;2023-03-12T14:19:44;3.40;;;1.20;;
19836;SDS011;10079;55.740;37.662;2023-03-12T14:22:31;2.50;;;1.10;;
19836;SDS011;10079;55.740;37.662;2023-03-12T14:25:21;1.43;;;1.00;;
19836;SDS011;10079;55.740;37.662;2023-03-12T14:28:10;3.00;;;1.40;;
19836;SDS011;10079;55.740;37.662;2023-03-12T14:31:01;4.23;;;1.10;;
19836;SDS011;10079;55.740;37.662;2023-03-12T14:44:21;1.97;;;1.13;;
19836;SDS011;10079;55.740;37.662;2023-03-12T14:47:07;1.87;;;1.00;;
19836;SDS011;10079;55.740;37.662;2023-03-12T14:50:00;2.30;;;1.17;;
19836;SDS011;10079;55.740;37.662;2023-03-12T14:52:45;2.23;;;1.13;;
19836;SDS011;10079;55.740;37.662;2023-03-12T14:55:28;4.13;;;1.30;;
19836;SDS011;10079;55.740;37.662;2023-03-12T14:58:19;3.07;;;1.77;;
19836;SDS011;10079;55.740;37.662;2023-03-12T15:01:11;2.67;;;1.40;;
19836;SDS011;10079;55.740;37.662;2023-03-12T15:03:59;2.20;;;1.60;;
19836;SDS011;10079;55.740;37.662;2023-03-12T15:06:46;3.83;;;1.57;;
19836;SDS011;10079;55.740;37.662;2023-03-12T15:09:29;2.30;;;1.73;;
19836;SDS011;10079;55.740;37.662;2023-03-12T15:12:23;4.10;;;1.90;;
19836;SDS011;10079;55.740;37.662;2023-03-12T15:15:06;2.70;;;1.83;;
19836;SDS011;10079;55.740;37.662;2023-03-12T15:18:05;4.90;;;2.73;;
19836;SDS011;10079;55.740;37.662;2023-03-12T15:20:47;4.07;;;2.30;;
19836;SDS011;10079;55.740;37.662;2023-03-12T15:23:29;2.57;;;1.60;;
19836;SDS011;10079;55.740;37.662;2023-03-12T15:26:13;2.57;;;1.93;;
19836;SDS011;10079;55.740;37.662;2023-03-12T15:29:23;4.27;;;1.70;;
19836;SDS011;10079;55.740;37.662;2023-03-12T15:32:06;2.50;;;1.77;;
19836;SDS011;10079;55.740;37.662;2023-03-12T15:34:51;2.43;;;1.90;;
19836;SDS011;10079;55.740;37.662;2023-03-12T15:37:34;3.77;;;2.13;;
19836;SDS011;10079;55.740;37.662;2023-03-12T15:40:22;5.90;;;1.97;;
19836;SDS011;10079;55.740;37.662;2023-03-12T15:53:58;5.17;;;2.77;;
19836;SDS011;10079;55.740;37.662;2023-03-12T16:07:20;3.30;;;2.93;;
19836;SDS011;10079;55.740;37.662;2023-03-12T16:10:01;4.67;;;2.57;;
19836;SDS011;10079;55.740;37.662;2023-03-12T16:12:45;5.53;;;2.90;;
19836;SDS011;10079;55.740;37.662;2023-03-12T16:15:37;5.80;;;2.90;;
19836;SDS011;10079;55.740;37.662;2023-03-12T16:18:19;5.03;;;2.70;;
19836;SDS011;10079;55.740;37.662;2023-03-12T16:21:02;4.30;;;2.77;;
19836;SDS011;10079;55.740;37.662;2023-03-12T16:23:56;3.90;;;2.57;;
19836;SDS011;10079;55.740;37.662;2023-03-12T16:26:42;4.53;;;3.00;;
19836;SDS011;10079;55.740;37.662;2023-03-12T16:29:34;3.47;;;2.17;;
19836;SDS011;10079;55.740;37.662;2023-03-12T16:32:18;5.10;;;2.73;;
19836;SDS011;10079;55.740;37.662;2023-03-12T16:35:08;5.97;;;3.47;;
19836;SDS011;10079;55.740;37.662;2023-03-12T16:37:45;4.20;;;2.90;;
19836;SDS011;10079;55.740;37.662;2023-03-12T16:40:29;5.60;;;2.47;;
19836;SDS011;10079;55.740;37.662;2023-03-12T16:43:22;5.63;;;2.93;;
19836;SDS011;10079;55.740;37.662;2023-03-12T16:46:08;9.43;;;3.07;;
19836;SDS011;10079;55.740;37.662;2023-03-12T16:48:52;5.40;;;3.33;;
19836;SDS011;10079;55.740;37.662;2023-03-12T16:51:45;3.30;;;2.73;;
19836;SDS011;10079;55.740;37.662;2023-03-12T16:54:29;4.67;;;3.53;;
19836;SDS011;10079;55.740;37.662;2023-03-12T17:07:57;6.73;;;3.30;;
19836;SDS011;10079;55.740;37.662;2023-03-12T17:10:41;3.23;;;2.93;;
19836;SDS011;10079;55.740;37.662;2023-03-12T17:13:30;4.13;;;3.30;;
19836;SDS011;10079;55.740;37.662;2023-03-12T17:16:20;4.13;;;3.40;;
19836;SDS011;10079;55.740;37.662;2023-03-12T17:19:04;6.47;;;3.73;;
19836;SDS011;10079;55.740;37.662;2023-03-12T17:21:47;5.63;;;3.60;;
19836;SDS011;10079;55.740;37.662;2023-03-12T17:24:32;4.57;;;4.13;;
19836;SDS011;10079;55.740;37.662;2023-03-12T17:27:16;5.67;;;3.57;;
19836;SDS011;10079;55.740;37.662;2023-03-12T17:30:00;4.43;;;3.17;;
19836;SDS011;10079;55.740;37.662;2023-03-12T17:32:42;5.13;;;3.53;;
19836;SDS011;10079;55.740;37.662;2023-03-12T17:35:26;4.47;;;3.00;;
19836;SDS011;10079;55.740;37.662;2023-03-12T17:38:11;4.20;;;3.00;;
19836;SDS011;10079;55.740;37.662;2023-03-12T17:41:02;4.30;;;3.10;;
19836;SDS011;10079;55.740;37.662;2023-03-12T17:43:45;4.30;;;3.40;;
19836;SDS011;10079;55.740;37.662;2023-03-12T17:46:26;5.00;;;3.33;;
19836;SDS011;10079;55.740;37.662;2023-03-12T17:49:13;6.47;;;2.77;;
19836;SDS011;10079;55.740;37.662;2023-03-12T17:52:01;2.93;;;2.63;;
19836;SDS011;10079;55.740;37.662;2023-03-12T17:54:43;3.70;;;2.70;;
19836;SDS011;10079;55.740;37.662;2023-03-12T17:57:31;4.23;;;2.87;;
19836;SDS011;10079;55.740;37.662;2023-03-12T18:00:19;4.93;;;3.30;;
19836;SDS011;10079;55.740;37.662;2023-03-12T18:03:01;5.07;;;3.33;;
19836;SDS011;10079;55.740;37.662;2023-03-12T18:05:42;4.50;;;3.43;;
19836;SDS011;10079;55.740;37.662;2023-03-12T18:08:27;5.60;;;3.40;;
19836;SDS011;10079;55.740;37.662;2023-03-12T18:11:09;6.10;;;3.40;;
19836;SDS011;10079;55.740;37.662;2023-03-12T18:13:58;4.33;;;2.67;;
19836;SDS011;10079;55.740;37.662;2023-03-12T18:16:39;3.73;;;2.60;;
19836;SDS011;10079;55.740;37.662;2023-03-12T18:30:11;4.70;;;3.20;;
19836;SDS011;10079;55.740;37.662;2023-03-12T18:33:04;3.13;;;2.43;;
19836;SDS011;10079;55.740;37.662;2023-03-12T18:35:48;4.43;;;2.63;;
19836;SDS011;10079;55.740;37.662;2023-03-12T18:38:30;4.03;;;1.97;;
19836;SDS011;10079;55.740;37.662;2023-03-12T18:41:17;2.87;;;2.00;;
19836;SDS011;10079;55.740;37.662;2023-03-12T18:44:10;3.10;;;1.93;;
19836;SDS011;10079;55.740;37.662;2023-03-12T18:47:06;2.33;;;1.77;;
19836;SDS011;10079;55.740;37.662;2023-03-12T18:49:49;3.20;;;1.90;;
19836;SDS011;10079;55.740;37.662;2023-03-12T18:52:40;2.30;;;1.53;;
19836;SDS011;10079;55.740;37.662;2023-03-12T18:55:23;1.93;;;1.70;;
19836;SDS011;10079;55.740;37.662;2023-03-12T18:58:09;2.33;;;1.60;;
19836;SDS011;10079;55.740;37.662;2023-03-12T19:00:59;2.80;;;2.00;;
19836;SDS011;10079;55.740;37.662;2023-03-12T19:03:52;2.57;;;1.73;;
19836;SDS011;10079;55.740;37.662;2023-03-12T19:06:33;2.57;;;1.60;;
19836;SDS011;10079;55.740;37.662;2023-03-12T19:09:19;1.93;;;1.27;;
19836;SDS011;10079;55.740;37.662;2023-03-12T19:12:02;1.87;;;1.53;;
19836;SDS011;10079;55.740;37.662;2023-03-12T19:14:43;2.73;;;1.53;;
19836;SDS011;10079;55.740;37.662;2023-03-12T19:17:24;2.87;;;1.60;;
19836;SDS011;10079;55.740;37.662;2023-03-12T19:20:13;2.50;;;1.77;;
19836;SDS011;10079;55.740;37.662;2023-03-12T19:22:54;3.37;;;1.40;;
19836;SDS011;10079;55.740;37.662;2023-03-12T19:25:42;1.90;;;1.50;;
19836;SDS011;10079;55.740;37.662;2023-03-12T19:28:24;1.57;;;1.47;;
19836;SDS011;10079;55.740;37.662;2023-03-12T19:31:10;3.53;;;2.07;;
19836;SDS011;10079;55.740;37.662;2023-03-12T19:33:50;1.60;;;1.37;;
19836;SDS011;10079;55.740;37.662;2023-03-12T19:36:31;3.23;;;1.63;;
19836;SDS011;10079;55.740;37.662;2023-03-12T19:39:12;2.37;;;1.40;;
19836;SDS011;10079;55.740;37.662;2023-03-12T19:41:52;2.30;;;1.57;;
19836;SDS011;10079;55.740;37.662;2023-03-12T19:44:43;2.03;;;1.63;;
19836;SDS011;10079;55.740;37.662;2023-03-12T19:47:36;2.23;;;1.30;;
19836;SDS011;10079;55.740;37.662;2023-03-12T19:50:21;1.80;;;1.47;;
19836;SDS011;10079;55.740;37.662;2023-03-12T19:53:07;2.27;;;1.40;;
19836;SDS011;10079;55.740;37.662;2023-03-12T19:55:55;2.30;;;1.33;;
19836;SDS011;10079;55.740;37.662;2023-03-12T20:09:30;2.23;;;1.63;;
19836;SDS011;10079;55.740;37.662;2023-03-12T20:22:42;2.03;;;1.50;;
19836;SDS011;10079;55.740;37.662;2023-03-12T20:25:32;3.57;;;1.63;;
19836;SDS011;10079;55.740;37.662;2023-03-12T20:28:16;1.77;;;1.37;;
19836;SDS011;10079;55.740;37.662;2023-03-12T20:31:06;2.20;;;1.40;;